Time;durP1;ratioP1;P1;durP2;ratioP2;P2;SDS_P1;SDS_P2;PMS_P1;PMS_P2;Temp;Humidity;BMP_temperature;BMP_pressure;BME280_temperature;BME280_humidity;BME280_pressure;Samples;Min_cycle;Max_cycle;Signal;HPM_P1;HPM_P2
2021/11/23 00:01:37;;;;;;;6.55;5.05;;;;;;;1.19;93.61;103299.28;5112365;28;20363;-61
2021/11/23 00:04:04;;;;;;;7.37;5.13;;;;;;;1.25;93.29;103296.53;5094288;28;20016;-60
2021/11/23 00:06:34;;;;;;;7.67;4.87;;;;;;;1.30;93.36;103297.31;5112406;28;20012;-61
2021/11/23 00:08:59;;;;;;;7.03;4.67;;;;;;;1.38;93.35;103296.28;5112337;28;20418;-60
2021/11/23 00:11:25;;;;;;;6.78;4.90;;;;;;;1.46;93.79;103294.38;5112022;28;20026;-61
2021/11/23 00:13:51;;;;;;;6.10;4.97;;;;;;;1.54;93.73;103297.69;5112324;28;20038;-61
2021/11/23 00:16:17;;;;;;;5.23;4.40;;;;;;;1.61;93.92;103294.03;5112224;28;20083;-61
2021/11/23 00:18:43;;;;;;;8.53;5.20;;;;;;;1.69;93.54;103296.50;5112329;28;20062;-61
2021/11/23 00:21:08;;;;;;;7.90;5.03;;;;;;;1.79;93.98;103294.53;5112215;28;20070;-61
2021/11/23 00:23:33;;;;;;;7.03;5.17;;;;;;;1.89;93.99;103301.34;5112157;28;20031;-61
2021/11/23 00:25:59;;;;;;;6.38;4.72;;;;;;;1.98;93.82;103295.88;5111883;28;20232;-61
2021/11/23 00:28:25;;;;;;;10.10;5.07;;;;;;;2.06;93.98;103295.69;5112009;28;20030;-61
2021/11/23 00:30:50;;;;;;;6.65;4.57;;;;;;;2.13;93.92;103297.25;5111827;28;20088;-62
2021/11/23 00:33:16;;;;;;;8.73;4.37;;;;;;;2.23;93.80;103289.16;5111956;28;20403;-63
2021/11/23 00:35:43;;;;;;;7.22;4.55;;;;;;;2.28;93.85;103292.53;5111775;28;20536;-61
2021/11/23 00:38:08;;;;;;;7.40;4.13;;;;;;;2.35;93.92;103288.88;5111984;28;20098;-61
2021/11/23 00:40:34;;;;;;;6.00;4.45;;;;;;;2.41;93.63;103293.09;5111834;28;20435;-62
2021/11/23 00:43:04;;;;;;;7.10;4.32;;;;;;;2.46;93.79;103294.72;5111760;28;20023;-61
2021/11/23 00:45:30;;;;;;;6.80;4.03;;;;;;;2.66;94.01;103288.06;5111745;28;20032;-61
2021/11/23 00:47:56;;;;;;;5.87;4.40;;;;;;;2.71;93.92;103280.06;5111421;28;20027;-62
2021/11/23 00:50:21;;;;;;;4.67;4.07;;;;;;;2.74;94.23;103282.59;5111711;28;20057;-61
2021/11/23 00:52:46;;;;;;;7.77;4.33;;;;;;;2.78;93.92;103284.25;5111644;28;20042;-61
2021/11/23 00:55:12;;;;;;;4.50;4.00;;;;;;;2.82;93.86;103280.63;5111540;28;20023;-61
2021/11/23 00:57:38;;;;;;;5.07;3.20;;;;;;;2.86;93.86;103287.53;5111593;28;20497;-61
2021/11/23 01:00:06;;;;;;;3.87;3.43;;;;;;;2.92;93.92;103290.00;5111520;28;20043;-62
2021/11/23 01:02:31;;;;;;;6.77;3.43;;;;;;;2.97;94.04;103293.41;5111314;28;20085;-62
2021/11/23 01:04:57;;;;;;;5.50;3.00;;;;;;;3.05;94.05;103289.69;5111387;28;20434;-62
2021/11/23 01:07:22;;;;;;;7.30;3.07;;;;;;;3.07;93.76;103283.44;5111282;28;20358;-62
2021/11/23 01:09:48;;;;;;;7.43;3.00;;;;;;;3.10;93.73;103283.38;5111362;28;20102;-61
2021/11/23 01:12:13;;;;;;;5.95;2.90;;;;;;;3.12;93.99;103281.56;5117683;22;20080;-63
2021/11/23 01:14:39;;;;;;;5.05;2.45;;;;;;;3.17;93.69;103283.22;5090813;28;20047;-61
2021/11/23 01:17:04;;;;;;;5.43;2.80;;;;;;;3.20;93.72;103281.34;5090787;28;20028;-64
2021/11/23 01:19:29;;;;;;;4.63;2.70;;;;;;;3.21;93.83;103269.91;5090574;28;20054;-62
2021/11/23 01:21:55;;;;;;;5.13;2.67;;;;;;;3.27;93.87;103275.00;5090727;28;20290;-63
2021/11/23 01:24:20;;;;;;;5.00;2.53;;;;;;;3.33;93.93;103276.59;5090607;28;20107;-61
2021/11/23 01:26:46;;;;;;;3.67;2.57;;;;;;;3.39;93.60;103270.25;5090656;28;20684;-61
2021/11/23 01:29:11;;;;;;;4.22;2.17;;;;;;;3.44;94.10;103276.25;5090578;28;20032;-62
2021/11/23 01:31:37;;;;;;;4.27;2.67;;;;;;;3.46;93.92;103275.31;5090567;28;20624;-61
2021/11/23 01:34:04;;;;;;;2.90;2.10;;;;;;;3.48;93.61;103265.59;5090459;28;20020;-66
2021/11/23 01:36:29;;;;;;;;;;;;;;;3.57;93.61;103268.88;5092128;28;20052;-59
2021/11/23 01:38:54;;;;;;;3.63;2.20;;;;;;;3.64;93.74;103266.00;5096947;28;20345;-60
2021/11/23 01:41:19;;;;;;;4.27;2.20;;;;;;;3.68;93.93;103263.25;5096809;28;20024;-61
2021/11/23 01:43:45;;;;;;;2.77;2.10;;;;;;;3.67;93.51;103259.75;5097084;28;20127;-63
2021/11/23 01:46:10;;;;;;;6.63;2.23;;;;;;;3.70;93.59;103269.34;5078914;28;20020;-62
2021/11/23 01:48:36;;;;;;;3.17;1.93;;;;;;;3.71;93.95;103268.47;5097110;28;20115;-63
2021/11/23 01:51:03;;;;;;;7.35;2.20;;;;;;;3.70;93.64;103272.00;5097066;28;20028;-59
2021/11/23 01:53:29;;;;;;;2.87;1.87;;;;;;;3.73;93.47;103269.25;5078653;28;20031;-64
2021/11/23 01:55:55;;;;;;;3.55;2.00;;;;;;;3.74;93.82;103277.16;5096969;28;20072;-59
2021/11/23 01:58:21;;;;;;;5.70;2.67;;;;;;;3.74;93.68;103269.22;5097031;28;20024;-62
2021/11/23 02:00:48;;;;;;;9.40;2.90;;;;;;;3.86;93.64;103272.38;5096876;28;20020;-62
2021/11/23 02:03:15;;;;;;;7.30;3.30;;;;;;;3.86;93.88;103268.00;5096893;28;20027;-62
2021/11/23 02:05:40;;;;;;;6.43;2.67;;;;;;;3.92;93.50;103264.28;5096778;28;20064;-61
2021/11/23 02:08:06;;;;;;;11.43;3.05;;;;;;;3.93;93.77;103264.22;5096952;28;20035;-63
2021/11/23 02:10:32;;;;;;;3.38;2.63;;;;;;;4.11;93.84;103268.06;5097089;28;20016;-63
2021/11/23 02:12:59;;;;;;;7.43;2.30;;;;;;;4.08;93.84;103262.00;5096604;28;20109;-63
2021/11/23 02:15:24;;;;;;;;;;;;;;;4.12;93.78;103261.00;5079372;28;20105;-63
2021/11/23 02:17:49;;;;;;;5.07;2.20;;;;;;;4.19;93.82;103262.53;5096867;28;19916;-60
2021/11/23 02:20:18;;;;;;;8.57;3.10;;;;;;;4.36;93.71;103261.09;5097138;28;20413;-60
2021/11/23 02:22:45;;;;;;;3.80;2.43;;;;;;;4.32;93.11;103263.84;5096665;28;20031;-60
2021/11/23 02:25:11;;;;;;;5.03;2.50;;;;;;;4.29;93.05;103249.88;5096881;28;20107;-59
2021/11/23 02:27:37;;;;;;;5.97;2.53;;;;;;;4.23;93.37;103250.97;5096828;28;20099;-61
2021/11/23 02:30:08;;;;;;;3.77;2.10;;;;;;;4.20;93.46;103248.41;5096697;28;20028;-64
2021/11/23 02:32:42;;;;;;;5.37;2.17;;;;;;;4.18;93.11;103252.00;5096866;28;20032;-63
2021/11/23 02:35:09;;;;;;;3.63;1.90;;;;;;;4.17;92.91;103242.38;5096578;28;20055;-63
2021/11/23 02:37:46;;;;;;;4.20;1.83;;;;;;;4.16;92.94;103238.88;5096756;28;20020;-63
2021/11/23 02:40:12;;;;;;;;;;;;;;;4.20;93.05;103239.63;5096981;28;20036;-63
2021/11/23 02:42:38;;;;;;;3.73;1.77;;;;;;;4.25;93.24;103232.44;5096501;28;20355;-65
2021/11/23 02:45:04;;;;;;;5.63;2.33;;;;;;;4.30;93.46;103233.97;5096685;28;20420;-59
2021/11/23 02:47:34;;;;;;;4.03;2.22;;;;;;;4.30;93.16;103226.06;5096686;28;20514;-64
2021/11/23 02:50:00;;;;;;;2.73;1.70;;;;;;;4.31;93.16;103230.44;5093751;28;20043;-63
2021/11/23 02:52:25;;;;;;;5.00;2.25;;;;;;;4.34;93.13;103231.25;5093530;28;20463;-62
2021/11/23 02:54:58;;;;;;;3.43;1.70;;;;;;;4.31;93.54;103226.94;5093247;28;20079;-60
2021/11/23 02:57:25;;;;;;;2.13;1.80;;;;;;;4.28;93.34;103225.28;5075017;28;20031;-65
2021/11/23 02:59:50;;;;;;;4.87;1.90;;;;;;;4.31;nan;103219.88;5093123;28;20039;-63
2021/11/23 03:02:16;;;;;;;3.33;2.43;;;;;;;4.36;nan;103218.84;5093066;28;20027;-64
2021/11/23 03:04:41;;;;;;;3.73;1.87;;;;;;;4.35;93.53;103219.75;5093357;28;20020;-61
2021/11/23 03:07:12;;;;;;;4.25;2.33;;;;;;;4.36;93.27;103217.09;5093042;28;20085;-59
2021/11/23 03:09:37;;;;;;;4.47;2.00;;;;;;;4.41;93.21;103214.28;5093098;28;20099;-61
2021/11/23 03:12:03;;;;;;;3.87;1.73;;;;;;;4.38;93.57;103206.47;5092821;28;20570;-61
2021/11/23 03:14:29;;;;;;;2.40;1.80;;;;;;;4.33;93.53;103214.53;5092943;28;20510;-64
2021/11/23 03:16:54;;;;;;;4.40;2.63;;;;;;;4.26;93.20;103211.25;5092926;28;20024;-61
2021/11/23 03:19:19;;;;;;;4.33;2.10;;;;;;;4.20;93.04;103214.09;5092697;28;20027;-64
2021/11/23 03:21:45;;;;;;;3.47;1.67;;;;;;;4.19;93.27;103214.16;5074689;28;20110;-60
2021/11/23 03:24:11;;;;;;;3.50;1.80;;;;;;;4.18;93.05;103215.94;5092834;28;20159;-63
2021/11/23 03:26:36;;;;;;;3.08;1.77;;;;;;;4.16;93.20;103215.09;5092676;28;20099;-63
2021/11/23 03:29:02;;;;;;;2.30;1.40;;;;;;;4.17;93.01;103216.84;5092789;28;20585;-65
2021/11/23 03:31:27;;;;;;;4.30;2.10;;;;;;;4.20;93.24;103219.38;5092610;28;20503;-62
2021/11/23 03:33:52;;;;;;;4.17;1.80;;;;;;;4.23;93.18;103213.13;5092393;28;20388;-61
2021/11/23 03:36:17;;;;;;;2.73;1.70;;;;;;;4.25;93.29;103209.53;5092336;28;20027;-60
2021/11/23 03:38:43;;;;;;;4.03;1.60;;;;;;;4.29;93.16;103210.28;5092422;28;20107;-63
2021/11/23 03:41:08;;;;;;;5.53;2.03;;;;;;;4.43;93.61;103215.97;5092219;28;20040;-59
2021/11/23 03:43:33;;;;;;;5.30;2.30;;;;;;;4.43;93.78;103220.38;5092211;28;20034;-63
2021/11/23 03:45:59;;;;;;;1.90;1.70;;;;;;;4.45;93.35;103218.53;5091973;28;20150;-63
2021/11/23 03:48:24;;;;;;;6.23;2.30;;;;;;;4.47;93.53;103216.72;5092072;28;20383;-61
2021/11/23 03:50:49;;;;;;;4.23;1.70;;;;;;;4.49;93.78;103212.22;5092208;28;20032;-61
2021/11/23 03:53:15;;;;;;;5.18;1.80;;;;;;;4.57;93.46;103207.56;5092330;28;20024;-64
2021/11/23 03:55:42;;;;;;;2.87;1.87;;;;;;;4.62;93.67;103205.63;5091913;28;20066;-63
2021/11/23 03:58:08;;;;;;;5.27;1.70;;;;;;;4.71;93.35;103214.97;5092008;28;20086;-64
2021/11/23 04:00:33;;;;;;;5.83;1.90;;;;;;;4.76;93.30;103205.09;5091461;28;20106;-66
2021/11/23 04:02:58;;;;;;;3.23;1.93;;;;;;;4.76;93.43;103205.09;5092077;28;20024;-65
2021/11/23 04:05:24;;;;;;;2.93;1.40;;;;;;;4.76;93.64;103206.91;5091734;28;20531;-61
2021/11/23 04:07:49;;;;;;;3.60;1.30;;;;;;;4.75;93.61;103199.88;5091976;28;20032;-63
2021/11/23 04:10:17;;;;;;;6.13;1.65;;;;;;;4.77;93.64;103198.91;5091415;28;20606;-65
2021/11/23 04:12:44;;;;;;;3.13;1.57;;;;;;;4.79;93.36;103196.22;5091318;28;20483;-65
2021/11/23 04:15:10;;;;;;;4.40;1.70;;;;;;;4.81;93.52;103203.16;5091116;28;20048;-63
2021/11/23 04:17:35;;;;;;;2.38;1.50;;;;;;;4.85;93.59;103209.22;5091712;28;20024;-65
2021/11/23 04:20:03;;;;;;;1.70;1.42;;;;;;;4.85;93.52;103211.84;5091625;28;20532;-63
2021/11/23 04:22:28;;;;;;;2.50;1.50;;;;;;;4.90;93.67;103207.25;5091619;28;20059;-64
2021/11/23 04:24:53;;;;;;;4.07;1.97;;;;;;;4.91;93.70;103209.00;5091510;28;20060;-64
2021/11/23 04:27:19;;;;;;;2.53;1.90;;;;;;;4.89;93.49;103208.16;5091606;28;20032;-64
2021/11/23 04:29:44;;;;;;;3.67;1.87;;;;;;;4.90;93.61;103209.91;5091570;28;20232;-62
2021/11/23 04:32:10;;;;;;;3.22;1.85;;;;;;;4.90;93.59;103209.91;5073142;28;20361;-59
2021/11/23 04:34:35;;;;;;;3.53;1.90;;;;;;;4.88;93.40;103213.53;5091318;28;20020;-64
2021/11/23 04:37:01;;;;;;;3.63;2.00;;;;;;;4.87;93.65;103204.72;5073463;28;20081;-63
2021/11/23 04:39:26;;;;;;;3.97;1.80;;;;;;;4.88;93.95;103208.25;5091503;28;20399;-64
2021/11/23 04:41:51;;;;;;;3.47;1.70;;;;;;;4.88;93.79;103205.59;5090929;28;20040;-62
2021/11/23 04:44:17;;;;;;;1.93;1.60;;;;;;;4.87;93.67;103193.28;5091394;28;20058;-60
2021/11/23 04:46:42;;;;;;;2.87;1.97;;;;;;;4.85;93.82;103198.63;5091238;28;20315;-63
2021/11/23 04:49:08;;;;;;;3.22;1.77;;;;;;;4.87;93.88;103202.06;5091125;28;20471;-63
2021/11/23 04:51:34;;;;;;;3.70;2.30;;;;;;;4.89;94.03;103191.47;5091134;28;20464;-62
2021/11/23 04:53:59;;;;;;;2.92;1.73;;;;;;;4.89;94.09;103192.31;5091426;28;20116;-65
2021/11/23 04:56:25;;;;;;;3.28;2.17;;;;;;;4.90;94.13;103190.53;5091087;28;20360;-60
2021/11/23 04:58:50;;;;;;;5.83;2.30;;;;;;;4.88;94.16;103180.03;5091093;28;20031;-65
2021/11/23 05:01:15;;;;;;;3.63;2.20;;;;;;;4.88;93.91;103184.44;5090899;28;20432;-62
2021/11/23 05:03:41;;;;;;;4.57;2.37;;;;;;;4.89;94.03;103187.03;5091084;28;20081;-61
2021/11/23 05:06:06;;;;;;;4.57;2.40;;;;;;;4.90;94.14;103179.97;5072558;28;20289;-66
2021/11/23 05:08:33;;;;;;;3.30;2.57;;;;;;;4.91;93.83;103179.03;5090876;28;20043;-60
2021/11/23 05:10:58;;;;;;;5.00;2.10;;;;;;;4.97;93.80;103179.66;5090409;28;20036;-63
2021/11/23 05:13:23;;;;;;;9.20;2.83;;;;;;;5.01;93.64;103177.78;5099763;22;20063;-64
2021/11/23 05:15:49;;;;;;;3.33;2.20;;;;;;;5.02;94.40;103178.63;5090878;28;20066;-63
2021/11/23 05:18:15;;;;;;;6.03;2.53;;;;;;;5.03;94.26;103183.88;5090274;28;20555;-61
2021/11/23 05:20:40;;;;;;;3.65;2.30;;;;;;;5.02;93.94;103179.50;5090518;28;20194;-64
2021/11/23 05:23:05;;;;;;;4.07;1.97;;;;;;;5.03;94.33;103180.38;5090602;28;20139;-62
2021/11/23 05:25:31;;;;;;;4.43;2.33;;;;;;;5.03;94.02;103188.28;5090777;28;20016;-60
2021/11/23 05:27:56;;;;;;;5.40;2.40;;;;;;;5.04;94.05;103184.75;5072184;28;20020;-66
2021/11/23 05:30:22;;;;;;;5.27;1.83;;;;;;;5.06;94.41;103185.56;5090373;28;20035;-62
2021/11/23 05:32:47;;;;;;;5.27;2.80;;;;;;;5.12;94.23;103195.88;5090151;28;20032;-62
2021/11/23 05:35:13;;;;;;;5.27;1.70;;;;;;;5.26;94.17;103193.56;5090333;28;20055;-60
2021/11/23 05:37:39;;;;;;;3.85;2.10;;;;;;;5.35;94.47;103194.16;5090004;28;20266;-64
2021/11/23 05:40:06;;;;;;;2.90;1.83;;;;;;;5.33;94.61;103191.53;5090440;28;20031;-63
2021/11/23 05:42:31;;;;;;;2.97;1.90;;;;;;;5.29;94.40;103195.22;5090101;28;20490;-61
2021/11/23 05:44:57;;;;;;;2.27;1.70;;;;;;;5.26;94.45;103190.91;5089793;28;20028;-63
2021/11/23 05:47:23;;;;;;;2.33;1.80;;;;;;;5.27;94.19;103186.50;5072088;28;20381;-65
2021/11/23 05:49:49;;;;;;;3.65;1.77;;;;;;;5.24;94.23;103183.97;5090346;28;20027;-64
2021/11/23 05:52:15;;;;;;;3.83;1.67;;;;;;;5.17;94.25;103183.34;5090049;28;20028;-63
2021/11/23 05:54:40;;;;;;;3.10;1.60;;;;;;;5.12;94.29;103180.91;5090402;28;20568;-65
2021/11/23 05:57:05;;;;;;;4.20;2.23;;;;;;;5.07;94.53;103179.31;5071868;28;20028;-64
2021/11/23 05:59:31;;;;;;;5.77;2.00;;;;;;;5.03;94.55;103183.88;5090478;28;20289;-62
2021/11/23 06:01:56;;;;;;;2.33;1.83;;;;;;;5.03;94.06;103190.94;5090276;28;20024;-64
2021/11/23 06:04:23;;;;;;;3.93;1.67;;;;;;;5.04;94.19;103193.53;5089959;28;20085;-64
2021/11/23 06:06:48;;;;;;;2.33;1.70;;;;;;;5.06;94.49;103190.84;5090199;28;20031;-65
2021/11/23 06:09:14;;;;;;;4.15;1.88;;;;;;;5.09;94.11;103188.91;5089824;28;20107;-63
2021/11/23 06:11:39;;;;;;;2.33;1.60;;;;;;;5.08;94.04;103189.88;5089887;28;20059;-65
2021/11/23 06:14:04;;;;;;;3.67;2.17;;;;;;;5.07;94.18;103195.19;5090057;28;20032;-65
2021/11/23 06:16:31;;;;;;;3.73;1.90;;;;;;;5.07;94.20;103192.53;5090163;28;20273;-66
2021/11/23 06:18:57;;;;;;;6.60;2.23;;;;;;;5.03;94.28;103183.00;5089980;28;20028;-63
2021/11/23 06:21:22;;;;;;;3.80;2.07;;;;;;;5.04;94.47;103190.03;5090128;28;20047;-64
2021/11/23 06:23:49;;;;;;;5.60;1.90;;;;;;;5.03;94.36;103188.28;5091897;28;20028;-63
2021/11/23 06:26:18;;;;;;;4.00;1.90;;;;;;;5.09;94.22;103188.91;5093957;28;20053;-64
2021/11/23 06:28:43;;;;;;;2.47;1.60;;;;;;;5.10;94.36;103190.66;5093595;28;20463;-65
2021/11/23 06:31:08;;;;;;;4.63;1.60;;;;;;;5.12;94.58;103201.16;5094056;28;20039;-64
2021/11/23 06:33:34;;;;;;;3.33;1.60;;;;;;;5.14;94.77;103191.41;5093717;28;20039;-65
2021/11/23 06:35:59;;;;;;;2.10;1.50;;;;;;;5.19;94.43;103194.75;5093583;28;20054;-64
2021/11/23 06:38:24;;;;;;;12.83;2.27;;;;;;;5.26;94.78;103193.56;5093573;28;20027;-65
2021/11/23 06:40:50;;;;;;;2.73;1.77;;;;;;;5.36;94.46;103194.09;5093022;28;20036;-65
2021/11/23 06:43:15;;;;;;;2.83;1.20;;;;;;;5.41;94.71;103201.81;5093410;28;20035;-66
2021/11/23 06:45:42;;;;;;;4.00;1.77;;;;;;;5.41;94.83;103202.72;5093421;28;20462;-64
2021/11/23 06:48:09;;;;;;;4.27;1.60;;;;;;;5.38;94.51;103194.03;5093447;28;20028;-63
2021/11/23 06:50:34;;;;;;;3.03;1.70;;;;;;;5.42;94.75;103200.91;5093205;28;20032;-66
2021/11/23 06:53:04;;;;;;;4.72;1.70;;;;;;;5.41;94.75;103201.81;5093349;28;20066;-63
2021/11/23 06:55:30;;;;;;;3.57;1.70;;;;;;;5.39;94.53;103203.69;5093255;28;20620;-65
2021/11/23 06:57:55;;;;;;;5.22;1.85;;;;;;;5.37;94.40;103210.81;5093285;28;20032;-65
2021/11/23 07:00:21;;;;;;;3.77;1.60;;;;;;;5.33;94.42;103212.69;5092722;28;20066;-61
2021/11/23 07:02:47;;;;;;;2.95;1.38;;;;;;;5.31;94.76;103210.13;5093096;28;20052;-65
2021/11/23 07:05:13;;;;;;;3.05;1.52;;;;;;;5.27;94.84;103211.16;5093003;28;20039;-65
2021/11/23 07:07:39;;;;;;;2.47;1.50;;;;;;;5.24;94.45;103216.56;5074751;28;20048;-64
2021/11/23 07:10:09;;;;;;;6.60;1.70;;;;;;;5.19;94.74;103223.81;5092934;28;20474;-60
2021/11/23 07:12:35;;;;;;;2.83;1.70;;;;;;;5.13;94.72;103226.69;5074338;28;20178;-61
2021/11/23 07:15:00;;;;;;;5.50;1.90;;;;;;;5.06;94.53;103228.69;5092934;28;20032;-64
2021/11/23 07:17:26;;;;;;;3.80;1.67;;;;;;;4.97;94.70;103221.09;5093243;28;20027;-64
2021/11/23 07:19:51;;;;;;;3.70;1.52;;;;;;;4.88;94.65;103229.38;5092667;28;20297;-58
2021/11/23 07:22:18;;;;;;;3.63;1.70;;;;;;;4.79;94.36;103228.78;5092694;28;20028;-62
2021/11/23 07:24:43;;;;;;;4.83;1.63;;;;;;;4.76;94.67;103231.53;5092596;28;20012;-59
2021/11/23 07:27:08;;;;;;;3.17;1.90;;;;;;;4.74;94.32;103227.22;5092819;28;20138;-66
2021/11/23 07:29:34;;;;;;;2.63;1.87;;;;;;;4.72;94.32;103222.00;5092404;28;20027;-59
2021/11/23 07:31:59;;;;;;;2.90;1.90;;;;;;;4.74;94.69;103233.38;5092737;28;20020;-65
2021/11/23 07:34:25;;;;;;;6.70;2.20;;;;;;;4.78;94.38;103234.09;5091986;28;20028;-64
2021/11/23 07:36:51;;;;;;;3.43;1.83;;;;;;;4.87;94.86;103244.34;5092235;28;20571;-58
2021/11/23 07:39:17;;;;;;;3.70;2.20;;;;;;;4.96;94.78;103238.75;5092216;28;20115;-65
2021/11/23 07:41:43;;;;;;;4.23;2.13;;;;;;;5.08;94.88;103244.50;5092117;28;20475;-60
2021/11/23 07:44:10;;;;;;;3.63;2.00;;;;;;;5.12;94.72;103239.06;5092419;28;20034;-60
2021/11/23 07:46:35;;;;;;;4.77;2.50;;;;;;;5.12;94.88;103233.75;5092163;28;20020;-59
2021/11/23 07:49:01;;;;;;;5.23;2.50;;;;;;;5.13;95.05;103239.91;5092526;28;20028;-60
2021/11/23 07:51:26;;;;;;;6.00;2.40;;;;;;;5.10;94.79;103234.75;5092323;28;20331;-60
2021/11/23 07:53:52;;;;;;;5.80;2.60;;;;;;;5.09;94.64;103243.59;5092152;28;20020;-60
2021/11/23 07:56:19;;;;;;;5.15;2.72;;;;;;;5.10;95.06;103247.94;5091947;28;20024;-64
2021/11/23 07:58:45;;;;;;;5.87;2.87;;;;;;;5.10;94.69;103240.03;5092175;28;20024;-61
2021/11/23 08:01:10;;;;;;;4.33;2.17;;;;;;;5.12;95.10;103249.63;5091605;28;20024;-58
2021/11/23 08:03:35;;;;;;;5.00;2.77;;;;;;;5.22;95.01;103254.56;5092002;28;20028;-64
2021/11/23 08:06:01;;;;;;;6.57;2.83;;;;;;;5.26;95.24;103254.38;5092089;28;20442;-59
2021/11/23 08:08:27;;;;;;;4.83;2.83;;;;;;;5.28;94.91;103255.19;5091971;28;20035;-58
2021/11/23 08:10:52;;;;;;;;;;;;;;;5.28;94.81;103257.84;5073568;28;20028;-61
2021/11/23 08:13:18;;;;;;;4.57;2.60;;;;;;;5.26;95.04;103254.38;5073446;28;19920;-59
2021/11/23 08:15:44;;;;;;;4.27;2.67;;;;;;;5.30;94.70;103255.13;5091689;28;20028;-60
2021/11/23 08:18:10;;;;;;;4.10;2.60;;;;;;;5.35;95.02;103254.97;5091598;28;20498;-62
2021/11/23 08:20:36;;;;;;;7.68;2.80;;;;;;;5.43;94.94;103269.59;5091092;28;20032;-64
2021/11/23 08:23:03;;;;;;;3.73;2.43;;;;;;;5.47;95.03;103273.00;5091527;28;20020;-64
2021/11/23 08:25:29;;;;;;;6.30;2.83;;;;;;;5.49;95.13;103273.81;5091581;28;20403;-60
2021/11/23 08:27:54;;;;;;;8.30;2.97;;;;;;;5.49;95.10;103271.19;5090677;28;20028;-63
2021/11/23 08:30:21;;;;;;;7.90;3.38;;;;;;;5.50;95.33;103270.22;5091144;28;20448;-65
2021/11/23 08:32:47;;;;;;;5.03;2.77;;;;;;;5.51;95.18;103268.47;5091514;28;20031;-60
2021/11/23 08:35:13;;;;;;;7.75;3.45;;;;;;;5.50;95.08;103272.88;5091841;28;20387;-64
2021/11/23 08:37:38;;;;;;;4.32;3.25;;;;;;;5.53;95.01;103269.25;5091310;28;20016;-59
2021/11/23 08:40:05;;;;;;;6.23;3.00;;;;;;;5.63;94.93;103273.28;5073121;28;20039;-65
2021/11/23 08:42:31;;;;;;;6.93;3.40;;;;;;;5.78;95.30;103272.69;5091102;28;20683;-61
2021/11/23 08:44:57;;;;;;;6.97;3.15;;;;;;;6.00;95.17;103273.66;5091342;28;20027;-60
2021/11/23 08:47:22;;;;;;;5.43;2.90;;;;;;;6.22;95.08;103276.28;5090988;28;20054;-65
2021/11/23 08:49:48;;;;;;;5.30;2.97;;;;;;;6.39;95.66;103281.72;5091511;28;20020;-63
2021/11/23 08:52:16;;;;;;;4.22;2.40;;;;;;;6.57;95.72;103271.31;5072872;28;20444;-64
2021/11/23 08:54:42;;;;;;;4.37;2.37;;;;;;;6.73;95.74;103269.69;5091320;28;20040;-62
2021/11/23 08:57:08;;;;;;;6.22;3.00;;;;;;;6.87;95.78;103274.41;5090768;28;20020;-67
2021/11/23 08:59:43;;;;;;;6.90;2.83;;;;;;;6.95;95.75;103277.56;5091002;28;20024;-63
2021/11/23 09:02:11;;;;;;;5.13;2.70;;;;;;;7.03;95.94;103274.56;5090826;28;20056;-62
2021/11/23 09:04:37;;;;;;;9.17;2.83;;;;;;;7.21;95.51;103278.19;5090950;28;20016;-65
2021/11/23 09:07:06;;;;;;;8.38;3.22;;;;;;;7.30;95.51;103284.84;5091044;28;20382;-59
2021/11/23 09:09:32;;;;;;;8.38;2.42;;;;;;;7.44;94.92;103284.22;5090860;28;20024;-63
2021/11/23 09:12:01;;;;;;;3.92;2.30;;;;;;;7.48;94.48;103292.00;5099790;22;20418;-65
2021/11/23 09:14:32;;;;;;;4.53;2.10;;;;;;;7.46;94.35;103293.00;5070786;28;20395;-64
2021/11/23 09:16:58;;;;;;;6.47;2.13;;;;;;;7.49;94.43;103292.84;5070475;28;20488;-65
2021/11/23 09:19:25;;;;;;;;;;;;;;;7.53;94.29;103297.06;5071108;28;20098;-62
2021/11/23 09:21:51;;;;;;;4.63;1.57;;;;;;;7.57;94.14;103296.00;5070540;28;19939;-60
2021/11/23 09:24:16;;;;;;;6.88;1.60;;;;;;;7.59;94.11;103293.25;5070676;28;20025;-59
2021/11/23 09:26:44;;;;;;;4.27;1.70;;;;;;;7.56;94.38;103291.59;5070490;28;20434;-66
2021/11/23 09:29:09;;;;;;;5.47;1.80;;;;;;;7.53;94.09;103291.75;5070759;28;20112;-63
2021/11/23 09:31:34;;;;;;;5.45;1.70;;;;;;;7.55;93.81;103291.69;5070546;28;20095;-64
2021/11/23 09:34:00;;;;;;;6.90;2.07;;;;;;;7.55;93.58;103294.34;5069704;28;20119;-67
2021/11/23 09:36:25;;;;;;;2.07;1.30;;;;;;;7.59;93.60;103293.25;5070558;28;20096;-64
2021/11/23 09:38:51;;;;;;;6.20;1.57;;;;;;;7.70;93.91;103295.44;5067397;28;20270;-65
2021/11/23 09:41:16;;;;;;;3.97;1.73;;;;;;;7.80;93.97;103296.69;5062792;28;20029;-59
2021/11/23 09:43:41;;;;;;;6.50;1.37;;;;;;;7.85;93.82;103299.13;5059249;28;20032;-59
2021/11/23 09:46:08;;;;;;;2.08;1.35;;;;;;;7.89;93.61;103295.41;5070249;28;20035;-60
2021/11/23 09:48:35;;;;;;;2.63;1.48;;;;;;;7.98;93.26;103303.81;5069586;28;20422;-60
2021/11/23 09:51:01;;;;;;;3.20;1.40;;;;;;;7.97;92.75;103303.84;5070339;28;20025;-60
2021/11/23 09:53:26;;;;;;;2.60;1.20;;;;;;;7.95;92.53;103300.44;5069750;28;20059;-59
2021/11/23 09:55:53;;;;;;;3.80;1.30;;;;;;;7.89;92.58;103301.59;5070106;28;20043;-59
2021/11/23 09:58:21;;;;;;;3.35;1.40;;;;;;;7.84;92.54;103298.28;5070893;28;20024;-60
2021/11/23 10:00:49;;;;;;;2.67;1.20;;;;;;;7.86;92.65;103300.88;5073847;28;20028;-59
2021/11/23 10:03:27;;;;;;;4.97;2.08;;;;;;;8.01;92.07;103304.56;5073647;28;20020;-60
2021/11/23 10:06:07;;;;;;;2.05;1.08;;;;;;;8.21;90.63;103306.25;5074033;28;20023;-59
2021/11/23 10:08:33;;;;;;;2.30;1.00;;;;;;;8.47;89.87;103299.69;5073044;28;20020;-59
2021/11/23 10:10:59;;;;;;;3.55;1.08;;;;;;;8.80;88.06;103298.91;5072962;28;20048;-59
2021/11/23 10:13:40;;;;;;;1.70;0.90;;;;;;;9.01;87.26;103296.91;5073566;28;20090;-60
2021/11/23 10:16:06;;;;;;;1.73;1.05;;;;;;;9.22;86.49;103297.56;5073823;28;20060;-59
2021/11/23 10:18:31;;;;;;;4.13;1.35;;;;;;;9.54;84.54;103292.28;5073542;28;20457;-59
2021/11/23 10:21:00;;;;;;;3.50;1.00;;;;;;;9.57;83.64;103294.81;5073282;28;20392;-60
2021/11/23 10:23:29;;;;;;;1.48;0.90;;;;;;;9.44;84.04;103302.59;5071901;28;20468;-61
2021/11/23 10:26:02;;;;;;;3.05;1.00;;;;;;;9.23;84.40;103296.63;5074009;28;20020;-61
2021/11/23 10:28:29;;;;;;;4.78;1.00;;;;;;;9.01;85.53;103301.34;5073884;28;20044;-60
2021/11/23 10:30:57;;;;;;;4.38;1.90;;;;;;;8.82;86.40;103297.00;5073740;28;20029;-60
2021/11/23 10:33:22;;;;;;;1.90;0.80;;;;;;;8.68;87.31;103295.09;5073534;28;20115;-64
2021/11/23 10:35:51;;;;;;;4.75;1.50;;;;;;;8.61;87.90;103283.88;5073632;28;20437;-63
2021/11/23 10:38:18;;;;;;;2.72;1.02;;;;;;;8.63;88.64;103292.66;5073323;28;20028;-63
2021/11/23 10:40:46;;;;;;;2.28;1.10;;;;;;;8.77;88.33;103297.25;5054827;28;20035;-63
2021/11/23 10:43:15;;;;;;;3.15;1.23;;;;;;;8.92;86.72;103290.28;5073425;28;20044;-66
2021/11/23 10:45:45;;;;;;;3.95;1.00;;;;;;;8.93;86.48;103289.34;5073609;28;20124;-64
2021/11/23 10:48:13;;;;;;;2.03;0.90;;;;;;;8.95;86.46;103278.63;5073211;28;20082;-65
2021/11/23 10:50:40;;;;;;;0.98;0.60;;;;;;;9.02;86.16;103282.69;5073236;28;20059;-65
2021/11/23 10:53:16;;;;;;;1.75;0.75;;;;;;;9.10;85.94;103282.25;5073272;28;20020;-64
2021/11/23 10:55:43;;;;;;;1.98;0.90;;;;;;;9.25;84.55;103280.59;5073480;28;20099;-65
2021/11/23 10:58:12;;;;;;;0.95;0.50;;;;;;;9.37;84.08;103279.91;5073361;28;20073;-63
2021/11/23 11:00:40;;;;;;;2.17;0.70;;;;;;;9.42;84.08;103274.34;5073318;28;20115;-64
2021/11/23 11:03:06;;;;;;;1.65;0.30;;;;;;;9.44;83.32;103270.66;5072997;28;20020;-64
2021/11/23 11:05:40;;;;;;;3.22;0.40;;;;;;;9.52;83.32;103278.22;5073468;28;20025;-63
2021/11/23 11:08:06;;;;;;;2.17;0.52;;;;;;;9.55;83.00;103269.22;5073263;28;20024;-64
2021/11/23 11:10:34;;;;;;;0.60;0.47;;;;;;;9.56;83.57;103270.91;5071899;28;20103;-64
2021/11/23 11:13:02;;;;;;;1.30;0.77;;;;;;;9.61;84.14;103268.84;5072879;28;20106;-63
2021/11/23 11:15:40;;;;;;;2.80;0.70;;;;;;;9.63;83.94;103262.50;5072897;28;20031;-63
2021/11/23 11:18:12;;;;;;;1.52;0.80;;;;;;;9.72;83.72;103270.94;5073070;28;20048;-65
2021/11/23 11:20:46;;;;;;;1.40;0.73;;;;;;;9.75;83.72;103262.75;5072977;28;20093;-63
2021/11/23 11:23:21;;;;;;;1.10;0.68;;;;;;;9.82;84.02;103269.44;5072864;28;20482;-64
2021/11/23 11:28:38;;;;;;;3.33;0.70;;;;;;;9.87;83.94;103259.38;5054476;28;20098;-64
2021/11/23 11:31:06;;;;;;;1.83;1.00;;;;;;;9.90;83.72;103253.91;5072887;28;20063;-63
2021/11/23 11:33:32;;;;;;;1.95;0.80;;;;;;;10.01;82.25;103257.72;5072573;28;20032;-64